sensor_id;sensor_type;location;lat;lon;timestamp;P1;durP1;ratioP1;P2;durP2;ratioP2
25657;SDS011;13517;59.320;18.042;2022-07-29T00:01:17;3.15;;;0.80;;
25657;SDS011;13517;59.320;18.042;2022-07-29T00:03:42;2.13;;;1.13;;
25657;SDS011;13517;59.320;18.042;2022-07-29T00:06:08;1.75;;;1.20;;
25657;SDS011;13517;59.320;18.042;2022-07-29T00:08:33;4.25;;;1.20;;
25657;SDS011;13517;59.320;18.042;2022-07-29T00:10:58;3.67;;;0.93;;
25657;SDS011;13517;59.320;18.042;2022-07-29T00:13:24;2.60;;;1.30;;
25657;SDS011;13517;59.320;18.042;2022-07-29T00:15:49;1.63;;;0.85;;
25657;SDS011;13517;59.320;18.042;2022-07-29T00:18:14;1.92;;;0.88;;
25657;SDS011;13517;59.320;18.042;2022-07-29T00:20:40;1.88;;;0.85;;
25657;SDS011;13517;59.320;18.042;2022-07-29T00:23:05;1.42;;;1.10;;
25657;SDS011;13517;59.320;18.042;2022-07-29T00:25:30;2.50;;;0.90;;
25657;SDS011;13517;59.320;18.042;2022-07-29T00:27:55;1.70;;;1.10;;
25657;SDS011;13517;59.320;18.042;2022-07-29T00:30:21;1.77;;;1.05;;
25657;SDS011;13517;59.320;18.042;2022-07-29T00:32:46;4.22;;;1.00;;
25657;SDS011;13517;59.320;18.042;2022-07-29T00:35:12;1.42;;;1.00;;
25657;SDS011;13517;59.320;18.042;2022-07-29T00:37:56;2.17;;;1.00;;
25657;SDS011;13517;59.320;18.042;2022-07-29T00:40:21;1.00;;;0.82;;
25657;SDS011;13517;59.320;18.042;2022-07-29T00:42:47;1.48;;;0.93;;
25657;SDS011;13517;59.320;18.042;2022-07-29T00:45:14;1.75;;;1.00;;
25657;SDS011;13517;59.320;18.042;2022-07-29T00:47:40;3.47;;;1.33;;
25657;SDS011;13517;59.320;18.042;2022-07-29T00:50:07;2.92;;;1.00;;
25657;SDS011;13517;59.320;18.042;2022-07-29T00:52:35;6.15;;;1.10;;
25657;SDS011;13517;59.320;18.042;2022-07-29T00:55:02;2.80;;;1.15;;
25657;SDS011;13517;59.320;18.042;2022-07-29T00:57:32;1.83;;;0.90;;
25657;SDS011;13517;59.320;18.042;2022-07-29T00:59:58;2.33;;;0.80;;
25657;SDS011;13517;59.320;18.042;2022-07-29T01:02:23;1.00;;;0.80;;
25657;SDS011;13517;59.320;18.042;2022-07-29T01:04:49;1.48;;;0.90;;
25657;SDS011;13517;59.320;18.042;2022-07-29T01:07:15;3.25;;;0.80;;
25657;SDS011;13517;59.320;18.042;2022-07-29T01:09:41;3.88;;;0.90;;
25657;SDS011;13517;59.320;18.042;2022-07-29T01:12:07;3.25;;;0.88;;
25657;SDS011;13517;59.320;18.042;2022-07-29T01:14:33;1.30;;;1.00;;
25657;SDS011;13517;59.320;18.042;2022-07-29T01:17:02;2.45;;;0.90;;
25657;SDS011;13517;59.320;18.042;2022-07-29T01:30:23;1.05;;;0.93;;
25657;SDS011;13517;59.320;18.042;2022-07-29T01:32:51;1.92;;;0.90;;
25657;SDS011;13517;59.320;18.042;2022-07-29T01:35:30;1.65;;;0.80;;
25657;SDS011;13517;59.320;18.042;2022-07-29T01:38:02;1.98;;;1.00;;
25657;SDS011;13517;59.320;18.042;2022-07-29T01:40:34;2.15;;;0.95;;
25657;SDS011;13517;59.320;18.042;2022-07-29T01:43:06;1.63;;;0.90;;
25657;SDS011;13517;59.320;18.042;2022-07-29T01:45:40;2.80;;;0.90;;
25657;SDS011;13517;59.320;18.042;2022-07-29T01:48:18;1.65;;;1.17;;
25657;SDS011;13517;59.320;18.042;2022-07-29T01:50:49;0.95;;;0.70;;
25657;SDS011;13517;59.320;18.042;2022-07-29T01:53:29;6.70;;;1.05;;
25657;SDS011;13517;59.320;18.042;2022-07-29T01:56:07;1.15;;;0.80;;
25657;SDS011;13517;59.320;18.042;2022-07-29T01:58:35;2.38;;;0.95;;
25657;SDS011;13517;59.320;18.042;2022-07-29T02:01:03;3.95;;;1.10;;
25657;SDS011;13517;59.320;18.042;2022-07-29T02:03:30;1.10;;;0.80;;
25657;SDS011;13517;59.320;18.042;2022-07-29T02:05:58;1.40;;;0.90;;
25657;SDS011;13517;59.320;18.042;2022-07-29T02:08:26;2.15;;;1.00;;
25657;SDS011;13517;59.320;18.042;2022-07-29T02:10:53;1.20;;;0.80;;
25657;SDS011;13517;59.320;18.042;2022-07-29T02:13:20;2.15;;;0.85;;
25657;SDS011;13517;59.320;18.042;2022-07-29T02:15:48;2.28;;;1.25;;
25657;SDS011;13517;59.320;18.042;2022-07-29T02:18:15;2.00;;;0.80;;
25657;SDS011;13517;59.320;18.042;2022-07-29T02:20:50;3.13;;;0.93;;
25657;SDS011;13517;59.320;18.042;2022-07-29T02:23:19;1.42;;;1.00;;
25657;SDS011;13517;59.320;18.042;2022-07-29T02:25:51;1.50;;;0.80;;
25657;SDS011;13517;59.320;18.042;2022-07-29T02:28:18;4.47;;;1.08;;
25657;SDS011;13517;59.320;18.042;2022-07-29T02:30:45;1.83;;;0.90;;
25657;SDS011;13517;59.320;18.042;2022-07-29T02:33:13;2.72;;;0.93;;
25657;SDS011;13517;59.320;18.042;2022-07-29T02:35:40;0.98;;;0.75;;
25657;SDS011;13517;59.320;18.042;2022-07-29T02:38:08;2.20;;;0.95;;
25657;SDS011;13517;59.320;18.042;2022-07-29T02:40:55;1.35;;;0.90;;
25657;SDS011;13517;59.320;18.042;2022-07-29T02:43:23;2.25;;;1.05;;
25657;SDS011;13517;59.320;18.042;2022-07-29T02:45:51;2.63;;;0.90;;
25657;SDS011;13517;59.320;18.042;2022-07-29T02:48:20;1.88;;;0.80;;
25657;SDS011;13517;59.320;18.042;2022-07-29T02:50:54;4.88;;;0.70;;
25657;SDS011;13517;59.320;18.042;2022-07-29T02:53:29;3.17;;;0.80;;
25657;SDS011;13517;59.320;18.042;2022-07-29T02:56:01;3.78;;;0.90;;
25657;SDS011;13517;59.320;18.042;2022-07-29T02:58:32;3.72;;;1.00;;
25657;SDS011;13517;59.320;18.042;2022-07-29T03:01:03;1.02;;;0.88;;
25657;SDS011;13517;59.320;18.042;2022-07-29T03:03:34;1.05;;;0.93;;
25657;SDS011;13517;59.320;18.042;2022-07-29T03:06:02;1.55;;;0.80;;
25657;SDS011;13517;59.320;18.042;2022-07-29T03:08:28;1.63;;;1.10;;
25657;SDS011;13517;59.320;18.042;2022-07-29T03:10:55;3.60;;;1.10;;
25657;SDS011;13517;59.320;18.042;2022-07-29T03:13:22;3.13;;;1.00;;
25657;SDS011;13517;59.320;18.042;2022-07-29T03:15:48;5.65;;;1.10;;
25657;SDS011;13517;59.320;18.042;2022-07-29T03:18:14;1.92;;;0.98;;
25657;SDS011;13517;59.320;18.042;2022-07-29T03:20:40;2.70;;;1.48;;
25657;SDS011;13517;59.320;18.042;2022-07-29T03:23:06;4.75;;;1.30;;
25657;SDS011;13517;59.320;18.042;2022-07-29T03:25:33;7.35;;;1.20;;
25657;SDS011;13517;59.320;18.042;2022-07-29T03:27:58;5.13;;;1.17;;
25657;SDS011;13517;59.320;18.042;2022-07-29T03:30:24;4.78;;;1.73;;
25657;SDS011;13517;59.320;18.042;2022-07-29T03:32:50;4.93;;;1.17;;
25657;SDS011;13517;59.320;18.042;2022-07-29T03:35:16;10.00;;;1.45;;
25657;SDS011;13517;59.320;18.042;2022-07-29T03:37:41;5.05;;;1.25;;
25657;SDS011;13517;59.320;18.042;2022-07-29T03:40:07;6.95;;;1.30;;
25657;SDS011;13517;59.320;18.042;2022-07-29T03:42:36;6.95;;;1.38;;
25657;SDS011;13517;59.320;18.042;2022-07-29T03:45:08;6.18;;;1.42;;
25657;SDS011;13517;59.320;18.042;2022-07-29T03:47:38;5.80;;;1.27;;
25657;SDS011;13517;59.320;18.042;2022-07-29T03:50:08;6.53;;;1.10;;
25657;SDS011;13517;59.320;18.042;2022-07-29T03:52:37;6.85;;;1.40;;
25657;SDS011;13517;59.320;18.042;2022-07-29T03:55:02;7.70;;;1.15;;
25657;SDS011;13517;59.320;18.042;2022-07-29T03:57:28;7.07;;;1.13;;
25657;SDS011;13517;59.320;18.042;2022-07-29T03:59:56;3.88;;;1.60;;
25657;SDS011;13517;59.320;18.042;2022-07-29T04:02:22;9.75;;;1.45;;
25657;SDS011;13517;59.320;18.042;2022-07-29T04:04:49;6.50;;;1.23;;
25657;SDS011;13517;59.320;18.042;2022-07-29T04:07:14;1.88;;;0.90;;
25657;SDS011;13517;59.320;18.042;2022-07-29T04:09:40;3.88;;;1.15;;
25657;SDS011;13517;59.320;18.042;2022-07-29T04:12:05;8.23;;;1.42;;
25657;SDS011;13517;59.320;18.042;2022-07-29T04:14:31;2.90;;;1.00;;
25657;SDS011;13517;59.320;18.042;2022-07-29T04:16:57;7.28;;;1.30;;
25657;SDS011;13517;59.320;18.042;2022-07-29T04:19:23;5.55;;;1.20;;
25657;SDS011;13517;59.320;18.042;2022-07-29T04:21:48;3.70;;;1.52;;
25657;SDS011;13517;59.320;18.042;2022-07-29T04:24:14;6.47;;;1.17;;
25657;SDS011;13517;59.320;18.042;2022-07-29T04:26:39;4.47;;;0.80;;
25657;SDS011;13517;59.320;18.042;2022-07-29T04:29:05;4.43;;;0.90;;
25657;SDS011;13517;59.320;18.042;2022-07-29T04:31:30;3.00;;;1.65;;
25657;SDS011;13517;59.320;18.042;2022-07-29T04:33:55;3.97;;;1.10;;
25657;SDS011;13517;59.320;18.042;2022-07-29T04:36:20;1.88;;;1.15;;
25657;SDS011;13517;59.320;18.042;2022-07-29T04:38:46;3.88;;;1.10;;
25657;SDS011;13517;59.320;18.042;2022-07-29T04:41:11;4.65;;;1.20;;
25657;SDS011;13517;59.320;18.042;2022-07-29T04:43:36;5.43;;;1.00;;
25657;SDS011;13517;59.320;18.042;2022-07-29T04:46:02;2.55;;;0.90;;
25657;SDS011;13517;59.320;18.042;2022-07-29T04:48:28;2.70;;;1.20;;
25657;SDS011;13517;59.320;18.042;2022-07-29T04:50:54;4.47;;;1.13;;
25657;SDS011;13517;59.320;18.042;2022-07-29T04:53:19;3.88;;;1.10;;
25657;SDS011;13517;59.320;18.042;2022-07-29T04:55:44;2.58;;;1.10;;
25657;SDS011;13517;59.320;18.042;2022-07-29T04:58:10;3.65;;;1.10;;
25657;SDS011;13517;59.320;18.042;2022-07-29T05:00:35;8.73;;;1.17;;
25657;SDS011;13517;59.320;18.042;2022-07-29T05:03:01;2.65;;;1.10;;
25657;SDS011;13517;59.320;18.042;2022-07-29T05:05:26;4.30;;;1.00;;
25657;SDS011;13517;59.320;18.042;2022-07-29T05:07:52;3.88;;;1.05;;
25657;SDS011;13517;59.320;18.042;2022-07-29T05:10:17;4.38;;;1.00;;
25657;SDS011;13517;59.320;18.042;2022-07-29T05:12:42;4.75;;;1.00;;
25657;SDS011;13517;59.320;18.042;2022-07-29T05:15:08;3.95;;;0.90;;
25657;SDS011;13517;59.320;18.042;2022-07-29T05:17:34;4.13;;;0.90;;
25657;SDS011;13517;59.320;18.042;2022-07-29T05:19:59;2.25;;;1.00;;
25657;SDS011;13517;59.320;18.042;2022-07-29T05:22:24;2.42;;;0.80;;
25657;SDS011;13517;59.320;18.042;2022-07-29T05:24:50;4.85;;;0.95;;
25657;SDS011;13517;59.320;18.042;2022-07-29T05:27:15;3.30;;;0.93;;
25657;SDS011;13517;59.320;18.042;2022-07-29T05:29:40;3.42;;;0.93;;
25657;SDS011;13517;59.320;18.042;2022-07-29T05:32:06;2.60;;;1.00;;
25657;SDS011;13517;59.320;18.042;2022-07-29T05:34:31;0.90;;;0.65;;
25657;SDS011;13517;59.320;18.042;2022-07-29T05:36:56;1.58;;;0.80;;
25657;SDS011;13517;59.320;18.042;2022-07-29T05:39:22;2.38;;;0.90;;
25657;SDS011;13517;59.320;18.042;2022-07-29T05:41:48;1.02;;;0.85;;
25657;SDS011;13517;59.320;18.042;2022-07-29T05:44:14;3.88;;;0.70;;
25657;SDS011;13517;59.320;18.042;2022-07-29T05:46:39;1.33;;;0.80;;
25657;SDS011;13517;59.320;18.042;2022-07-29T05:49:04;2.40;;;1.05;;
25657;SDS011;13517;59.320;18.042;2022-07-29T05:51:31;1.98;;;0.88;;
25657;SDS011;13517;59.320;18.042;2022-07-29T05:53:57;3.67;;;0.85;;
25657;SDS011;13517;59.320;18.042;2022-07-29T05:56:22;3.58;;;0.82;;
25657;SDS011;13517;59.320;18.042;2022-07-29T05:58:48;6.90;;;0.77;;
25657;SDS011;13517;59.320;18.042;2022-07-29T06:01:13;1.83;;;0.73;;
25657;SDS011;13517;59.320;18.042;2022-07-29T06:03:38;1.27;;;0.50;;
25657;SDS011;13517;59.320;18.042;2022-07-29T06:06:06;1.05;;;0.73;;
25657;SDS011;13517;59.320;18.042;2022-07-29T06:08:32;2.88;;;0.70;;
25657;SDS011;13517;59.320;18.042;2022-07-29T06:10:58;4.35;;;1.20;;
25657;SDS011;13517;59.320;18.042;2022-07-29T06:13:24;2.60;;;0.68;;
25657;SDS011;13517;59.320;18.042;2022-07-29T06:15:49;0.47;;;0.40;;
25657;SDS011;13517;59.320;18.042;2022-07-29T06:18:14;3.50;;;0.80;;
25657;SDS011;13517;59.320;18.042;2022-07-29T06:20:40;1.23;;;0.68;;
25657;SDS011;13517;59.320;18.042;2022-07-29T06:23:05;0.68;;;0.52;;
25657;SDS011;13517;59.320;18.042;2022-07-29T06:25:30;0.50;;;0.50;;
25657;SDS011;13517;59.320;18.042;2022-07-29T06:27:59;2.67;;;0.65;;
25657;SDS011;13517;59.320;18.042;2022-07-29T06:30:24;1.15;;;0.60;;
25657;SDS011;13517;59.320;18.042;2022-07-29T06:32:50;0.50;;;0.50;;
25657;SDS011;13517;59.320;18.042;2022-07-29T06:35:15;2.40;;;0.70;;
25657;SDS011;13517;59.320;18.042;2022-07-29T06:37:40;0.70;;;0.60;;
25657;SDS011;13517;59.320;18.042;2022-07-29T06:40:06;0.30;;;0.30;;
25657;SDS011;13517;59.320;18.042;2022-07-29T06:42:51;0.80;;;0.50;;
25657;SDS011;13517;59.320;18.042;2022-07-29T06:45:16;0.85;;;0.50;;
25657;SDS011;13517;59.320;18.042;2022-07-29T06:47:41;1.88;;;0.35;;
25657;SDS011;13517;59.320;18.042;2022-07-29T06:50:07;0.65;;;0.57;;
25657;SDS011;13517;59.320;18.042;2022-07-29T06:52:38;0.73;;;0.50;;
25657;SDS011;13517;59.320;18.042;2022-07-29T06:55:04;3.70;;;0.60;;
25657;SDS011;13517;59.320;18.042;2022-07-29T06:57:29;0.77;;;0.57;;
25657;SDS011;13517;59.320;18.042;2022-07-29T06:59:58;0.52;;;0.43;;
25657;SDS011;13517;59.320;18.042;2022-07-29T07:02:23;1.67;;;0.77;;
25657;SDS011;13517;59.320;18.042;2022-07-29T07:04:49;0.55;;;0.52;;
25657;SDS011;13517;59.320;18.042;2022-07-29T07:07:14;0.70;;;0.60;;
25657;SDS011;13517;59.320;18.042;2022-07-29T07:09:39;0.60;;;0.60;;
25657;SDS011;13517;59.320;18.042;2022-07-29T07:12:04;0.57;;;0.50;;
25657;SDS011;13517;59.320;18.042;2022-07-29T07:14:30;0.50;;;0.50;;
25657;SDS011;13517;59.320;18.042;2022-07-29T07:16:56;1.27;;;0.50;;
25657;SDS011;13517;59.320;18.042;2022-07-29T07:19:21;0.73;;;0.60;;
25657;SDS011;13517;59.320;18.042;2022-07-29T07:21:46;0.85;;;0.47;;
25657;SDS011;13517;59.320;18.042;2022-07-29T07:24:12;0.90;;;0.60;;
25657;SDS011;13517;59.320;18.042;2022-07-29T07:26:37;0.80;;;0.65;;
25657;SDS011;13517;59.320;18.042;2022-07-29T07:29:04;1.00;;;0.60;;
25657;SDS011;13517;59.320;18.042;2022-07-29T07:31:29;1.63;;;0.80;;
25657;SDS011;13517;59.320;18.042;2022-07-29T07:33:55;1.80;;;1.02;;
25657;SDS011;13517;59.320;18.042;2022-07-29T07:36:20;1.25;;;0.73;;
25657;SDS011;13517;59.320;18.042;2022-07-29T07:38:46;0.60;;;0.60;;
25657;SDS011;13517;59.320;18.042;2022-07-29T07:41:11;0.50;;;0.50;;
25657;SDS011;13517;59.320;18.042;2022-07-29T07:43:36;0.93;;;0.52;;
25657;SDS011;13517;59.320;18.042;2022-07-29T07:46:02;2.22;;;0.55;;
25657;SDS011;13517;59.320;18.042;2022-07-29T07:48:28;0.50;;;0.50;;
25657;SDS011;13517;59.320;18.042;2022-07-29T07:50:53;1.25;;;0.63;;
25657;SDS011;13517;59.320;18.042;2022-07-29T07:53:18;0.90;;;0.60;;
25657;SDS011;13517;59.320;18.042;2022-07-29T07:55:44;0.75;;;0.65;;
25657;SDS011;13517;59.320;18.042;2022-07-29T07:58:09;0.63;;;0.50;;
25657;SDS011;13517;59.320;18.042;2022-07-29T08:00:35;0.73;;;0.50;;
25657;SDS011;13517;59.320;18.042;2022-07-29T08:03:00;0.60;;;0.60;;
25657;SDS011;13517;59.320;18.042;2022-07-29T08:05:26;1.75;;;0.70;;
25657;SDS011;13517;59.320;18.042;2022-07-29T08:07:51;0.60;;;0.60;;
25657;SDS011;13517;59.320;18.042;2022-07-29T08:10:17;1.08;;;0.95;;
25657;SDS011;13517;59.320;18.042;2022-07-29T08:13:07;2.22;;;0.63;;
25657;SDS011;13517;59.320;18.042;2022-07-29T08:15:34;0.75;;;0.50;;
25657;SDS011;13517;59.320;18.042;2022-07-29T08:18:00;2.58;;;0.60;;
25657;SDS011;13517;59.320;18.042;2022-07-29T08:20:26;3.83;;;0.70;;
25657;SDS011;13517;59.320;18.042;2022-07-29T08:22:51;2.95;;;0.80;;
25657;SDS011;13517;59.320;18.042;2022-07-29T08:25:17;0.60;;;0.52;;
25657;SDS011;13517;59.320;18.042;2022-07-29T08:27:45;0.95;;;0.50;;
25657;SDS011;13517;59.320;18.042;2022-07-29T08:30:11;0.75;;;0.50;;
25657;SDS011;13517;59.320;18.042;2022-07-29T08:32:37;2.92;;;0.70;;
25657;SDS011;13517;59.320;18.042;2022-07-29T08:35:02;0.70;;;0.70;;
25657;SDS011;13517;59.320;18.042;2022-07-29T08:37:28;1.65;;;0.60;;
25657;SDS011;13517;59.320;18.042;2022-07-29T08:39:53;1.02;;;0.40;;
25657;SDS011;13517;59.320;18.042;2022-07-29T08:42:18;0.52;;;0.43;;
25657;SDS011;13517;59.320;18.042;2022-07-29T08:44:43;1.13;;;0.60;;
25657;SDS011;13517;59.320;18.042;2022-07-29T08:47:09;1.15;;;0.68;;
25657;SDS011;13517;59.320;18.042;2022-07-29T08:49:38;1.13;;;0.60;;
25657;SDS011;13517;59.320;18.042;2022-07-29T08:52:04;2.17;;;0.90;;
25657;SDS011;13517;59.320;18.042;2022-07-29T08:54:30;0.85;;;0.60;;
25657;SDS011;13517;59.320;18.042;2022-07-29T08:56:55;1.05;;;0.70;;
25657;SDS011;13517;59.320;18.042;2022-07-29T08:59:22;1.30;;;0.55;;
25657;SDS011;13517;59.320;18.042;2022-07-29T09:01:52;0.90;;;0.80;;
25657;SDS011;13517;59.320;18.042;2022-07-29T09:04:18;2.17;;;0.80;;
25657;SDS011;13517;59.320;18.042;2022-07-29T09:06:46;0.65;;;0.65;;
25657;SDS011;13517;59.320;18.042;2022-07-29T09:09:14;0.82;;;0.80;;
25657;SDS011;13517;59.320;18.042;2022-07-29T09:11:40;1.30;;;0.88;;
25657;SDS011;13517;59.320;18.042;2022-07-29T09:14:06;1.17;;;0.60;;
25657;SDS011;13517;59.320;18.042;2022-07-29T09:19:19;0.80;;;0.60;;
25657;SDS011;13517;59.320;18.042;2022-07-29T09:21:45;1.13;;;0.65;;
25657;SDS011;13517;59.320;18.042;2022-07-29T09:24:23;2.67;;;0.68;;
25657;SDS011;13517;59.320;18.042;2022-07-29T09:26:49;4.28;;;0.63;;
25657;SDS011;13517;59.320;18.042;2022-07-29T09:29:16;1.17;;;0.68;;
25657;SDS011;13517;59.320;18.042;2022-07-29T09:31:49;0.60;;;0.60;;
25657;SDS011;13517;59.320;18.042;2022-07-29T09:34:20;3.00;;;1.13;;
25657;SDS011;13517;59.320;18.042;2022-07-29T09:36:48;0.88;;;0.70;;
25657;SDS011;13517;59.320;18.042;2022-07-29T09:39:15;3.10;;;0.70;;
25657;SDS011;13517;59.320;18.042;2022-07-29T09:41:53;0.77;;;0.60;;
25657;SDS011;13517;59.320;18.042;2022-07-29T09:44:20;0.93;;;0.70;;
25657;SDS011;13517;59.320;18.042;2022-07-29T09:46:53;1.30;;;0.55;;
25657;SDS011;13517;59.320;18.042;2022-07-29T09:49:31;1.92;;;0.90;;
25657;SDS011;13517;59.320;18.042;2022-07-29T09:54:28;0.77;;;0.63;;
25657;SDS011;13517;59.320;18.042;2022-07-29T09:56:59;0.85;;;0.70;;
25657;SDS011;13517;59.320;18.042;2022-07-29T09:59:24;0.55;;;0.55;;
25657;SDS011;13517;59.320;18.042;2022-07-29T10:01:51;1.80;;;0.70;;
25657;SDS011;13517;59.320;18.042;2022-07-29T10:04:18;3.30;;;0.50;;
25657;SDS011;13517;59.320;18.042;2022-07-29T10:07:00;1.38;;;0.73;;
25657;SDS011;13517;59.320;18.042;2022-07-29T10:09:26;0.70;;;0.60;;
25657;SDS011;13517;59.320;18.042;2022-07-29T10:12:12;1.48;;;0.80;;
25657;SDS011;13517;59.320;18.042;2022-07-29T10:14:41;2.08;;;0.60;;
25657;SDS011;13517;59.320;18.042;2022-07-29T10:17:07;0.60;;;0.52;;
25657;SDS011;13517;59.320;18.042;2022-07-29T10:19:34;1.77;;;0.60;;
25657;SDS011;13517;59.320;18.042;2022-07-29T10:22:01;0.70;;;0.60;;
25657;SDS011;13517;59.320;18.042;2022-07-29T10:24:30;0.70;;;0.70;;
25657;SDS011;13517;59.320;18.042;2022-07-29T10:26:57;1.88;;;0.85;;
25657;SDS011;13517;59.320;18.042;2022-07-29T10:29:24;2.28;;;0.70;;
25657;SDS011;13517;59.320;18.042;2022-07-29T10:37:30;0.82;;;0.52;;
25657;SDS011;13517;59.320;18.042;2022-07-29T10:43:19;1.17;;;0.60;;
25657;SDS011;13517;59.320;18.042;2022-07-29T10:45:48;0.60;;;0.60;;
25657;SDS011;13517;59.320;18.042;2022-07-29T10:48:14;0.60;;;0.60;;
25657;SDS011;13517;59.320;18.042;2022-07-29T10:50:55;2.08;;;0.60;;
25657;SDS011;13517;59.320;18.042;2022-07-29T10:53:23;0.90;;;0.70;;
25657;SDS011;13517;59.320;18.042;2022-07-29T10:55:50;1.13;;;0.82;;
25657;SDS011;13517;59.320;18.042;2022-07-29T10:58:21;3.47;;;1.67;;
25657;SDS011;13517;59.320;18.042;2022-07-29T11:00:49;3.72;;;0.95;;
25657;SDS011;13517;59.320;18.042;2022-07-29T11:06:20;0.85;;;0.68;;
25657;SDS011;13517;59.320;18.042;2022-07-29T11:08:46;3.90;;;0.70;;
25657;SDS011;13517;59.320;18.042;2022-07-29T11:11:44;2.80;;;0.50;;
25657;SDS011;13517;59.320;18.042;2022-07-29T11:14:10;0.60;;;0.55;;
25657;SDS011;13517;59.320;18.042;2022-07-29T11:16:57;0.73;;;0.73;;
25657;SDS011;13517;59.320;18.042;2022-07-29T11:19:24;0.77;;;0.60;;
25657;SDS011;13517;59.320;18.042;2022-07-29T11:21:50;0.70;;;0.70;;
25657;SDS011;13517;59.320;18.042;2022-07-29T11:24:20;0.80;;;0.52;;
25657;SDS011;13517;59.320;18.042;2022-07-29T11:29:34;0.52;;;0.52;;
25657;SDS011;13517;59.320;18.042;2022-07-29T11:32:12;2.47;;;1.00;;
25657;SDS011;13517;59.320;18.042;2022-07-29T11:34:44;4.22;;;1.15;;
25657;SDS011;13517;59.320;18.042;2022-07-29T11:45:02;0.60;;;0.60;;
25657;SDS011;13517;59.320;18.042;2022-07-29T11:50:14;3.50;;;0.80;;
25657;SDS011;13517;59.320;18.042;2022-07-29T11:52:42;7.07;;;1.92;;
25657;SDS011;13517;59.320;18.042;2022-07-29T11:55:11;0.75;;;0.70;;
25657;SDS011;13517;59.320;18.042;2022-07-29T11:57:45;1.95;;;0.75;;
25657;SDS011;13517;59.320;18.042;2022-07-29T12:00:12;1.58;;;0.80;;
25657;SDS011;13517;59.320;18.042;2022-07-29T12:02:47;1.73;;;0.75;;
25657;SDS011;13517;59.320;18.042;2022-07-29T12:05:12;0.60;;;0.60;;
25657;SDS011;13517;59.320;18.042;2022-07-29T12:07:38;0.75;;;0.70;;
25657;SDS011;13517;59.320;18.042;2022-07-29T12:10:04;0.60;;;0.60;;
25657;SDS011;13517;59.320;18.042;2022-07-29T12:12:31;0.82;;;0.55;;
25657;SDS011;13517;59.320;18.042;2022-07-29T12:14:56;2.10;;;0.70;;
25657;SDS011;13517;59.320;18.042;2022-07-29T12:17:25;1.33;;;1.00;;
25657;SDS011;13517;59.320;18.042;2022-07-29T12:19:59;3.50;;;0.90;;
25657;SDS011;13517;59.320;18.042;2022-07-29T12:22:27;1.23;;;0.63;;
25657;SDS011;13517;59.320;18.042;2022-07-29T12:25:00;0.50;;;0.50;;
25657;SDS011;13517;59.320;18.042;2022-07-29T12:27:31;2.83;;;1.00;;
25657;SDS011;13517;59.320;18.042;2022-07-29T12:30:02;0.60;;;0.60;;
25657;SDS011;13517;59.320;18.042;2022-07-29T12:32:33;0.90;;;0.80;;
25657;SDS011;13517;59.320;18.042;2022-07-29T12:35:04;0.77;;;0.70;;
25657;SDS011;13517;59.320;18.042;2022-07-29T12:37:38;0.50;;;0.50;;
25657;SDS011;13517;59.320;18.042;2022-07-29T12:40:06;0.50;;;0.50;;
25657;SDS011;13517;59.320;18.042;2022-07-29T12:42:33;0.60;;;0.60;;
25657;SDS011;13517;59.320;18.042;2022-07-29T12:44:59;0.75;;;0.60;;
25657;SDS011;13517;59.320;18.042;2022-07-29T12:47:26;0.70;;;0.55;;
25657;SDS011;13517;59.320;18.042;2022-07-29T12:50:07;0.65;;;0.63;;
25657;SDS011;13517;59.320;18.042;2022-07-29T12:52:36;0.70;;;0.70;;
25657;SDS011;13517;59.320;18.042;2022-07-29T12:55:02;2.67;;;0.50;;
25657;SDS011;13517;59.320;18.042;2022-07-29T12:57:28;0.52;;;0.52;;
25657;SDS011;13517;59.320;18.042;2022-07-29T13:00:02;1.45;;;0.60;;
25657;SDS011;13517;59.320;18.042;2022-07-29T13:02:36;0.40;;;0.40;;
25657;SDS011;13517;59.320;18.042;2022-07-29T13:05:02;0.50;;;0.50;;
25657;SDS011;13517;59.320;18.042;2022-07-29T13:07:29;0.65;;;0.47;;
25657;SDS011;13517;59.320;18.042;2022-07-29T13:10:10;1.48;;;0.70;;
25657;SDS011;13517;59.320;18.042;2022-07-29T13:12:36;0.60;;;0.60;;
25657;SDS011;13517;59.320;18.042;2022-07-29T13:15:11;0.50;;;0.50;;
25657;SDS011;13517;59.320;18.042;2022-07-29T13:17:44;3.08;;;0.70;;
25657;SDS011;13517;59.320;18.042;2022-07-29T13:20:10;0.60;;;0.60;;
25657;SDS011;13517;59.320;18.042;2022-07-29T13:22:40;1.13;;;0.60;;
25657;SDS011;13517;59.320;18.042;2022-07-29T13:25:07;0.80;;;0.70;;
25657;SDS011;13517;59.320;18.042;2022-07-29T13:27:34;0.85;;;0.70;;
25657;SDS011;13517;59.320;18.042;2022-07-29T13:30:03;0.75;;;0.70;;
25657;SDS011;13517;59.320;18.042;2022-07-29T13:32:30;2.92;;;0.60;;
25657;SDS011;13517;59.320;18.042;2022-07-29T13:34:57;1.42;;;0.73;;
25657;SDS011;13517;59.320;18.042;2022-07-29T13:37:24;2.40;;;0.70;;
25657;SDS011;13517;59.320;18.042;2022-07-29T13:39:50;2.55;;;0.80;;
25657;SDS011;13517;59.320;18.042;2022-07-29T13:42:17;1.70;;;0.70;;
25657;SDS011;13517;59.320;18.042;2022-07-29T13:44:42;0.60;;;0.60;;
25657;SDS011;13517;59.320;18.042;2022-07-29T13:47:08;1.38;;;0.70;;
25657;SDS011;13517;59.320;18.042;2022-07-29T13:49:33;3.05;;;0.60;;
25657;SDS011;13517;59.320;18.042;2022-07-29T13:51:59;1.30;;;0.70;;
25657;SDS011;13517;59.320;18.042;2022-07-29T13:54:24;0.68;;;0.50;;
25657;SDS011;13517;59.320;18.042;2022-07-29T13:56:50;0.60;;;0.60;;
25657;SDS011;13517;59.320;18.042;2022-07-29T13:59:16;0.60;;;0.60;;
25657;SDS011;13517;59.320;18.042;2022-07-29T14:01:41;0.50;;;0.50;;
25657;SDS011;13517;59.320;18.042;2022-07-29T14:04:07;2.13;;;0.70;;
25657;SDS011;13517;59.320;18.042;2022-07-29T14:06:33;1.88;;;0.60;;
25657;SDS011;13517;59.320;18.042;2022-07-29T14:08:58;0.82;;;0.60;;
25657;SDS011;13517;59.320;18.042;2022-07-29T14:11:24;0.52;;;0.52;;
25657;SDS011;13517;59.320;18.042;2022-07-29T14:13:49;1.25;;;0.98;;
25657;SDS011;13517;59.320;18.042;2022-07-29T14:16:15;0.85;;;0.70;;
25657;SDS011;13517;59.320;18.042;2022-07-29T14:18:40;0.93;;;0.63;;
25657;SDS011;13517;59.320;18.042;2022-07-29T14:21:05;1.45;;;0.90;;
25657;SDS011;13517;59.320;18.042;2022-07-29T14:23:31;1.17;;;0.50;;
25657;SDS011;13517;59.320;18.042;2022-07-29T14:25:56;0.90;;;0.70;;
25657;SDS011;13517;59.320;18.042;2022-07-29T14:28:21;1.67;;;0.85;;
25657;SDS011;13517;59.320;18.042;2022-07-29T14:30:47;1.75;;;0.80;;
25657;SDS011;13517;59.320;18.042;2022-07-29T14:33:12;0.82;;;0.75;;
25657;SDS011;13517;59.320;18.042;2022-07-29T14:35:38;0.60;;;0.60;;
25657;SDS011;13517;59.320;18.042;2022-07-29T14:38:03;1.25;;;0.82;;
25657;SDS011;13517;59.320;18.042;2022-07-29T14:40:28;0.93;;;0.70;;
25657;SDS011;13517;59.320;18.042;2022-07-29T14:42:54;0.60;;;0.60;;
25657;SDS011;13517;59.320;18.042;2022-07-29T14:45:19;0.50;;;0.50;;
25657;SDS011;13517;59.320;18.042;2022-07-29T14:47:44;2.13;;;0.85;;
25657;SDS011;13517;59.320;18.042;2022-07-29T14:50:10;1.67;;;0.90;;
25657;SDS011;13517;59.320;18.042;2022-07-29T14:52:35;1.45;;;0.85;;
25657;SDS011;13517;59.320;18.042;2022-07-29T14:55:01;0.52;;;0.52;;
25657;SDS011;13517;59.320;18.042;2022-07-29T14:57:27;1.33;;;0.70;;
25657;SDS011;13517;59.320;18.042;2022-07-29T14:59:52;2.67;;;0.73;;
25657;SDS011;13517;59.320;18.042;2022-07-29T15:02:18;3.72;;;0.80;;
25657;SDS011;13517;59.320;18.042;2022-07-29T15:04:43;2.40;;;0.85;;
25657;SDS011;13517;59.320;18.042;2022-07-29T15:07:10;0.80;;;0.80;;
25657;SDS011;13517;59.320;18.042;2022-07-29T15:09:36;0.88;;;0.75;;
25657;SDS011;13517;59.320;18.042;2022-07-29T15:12:02;1.83;;;0.75;;
25657;SDS011;13517;59.320;18.042;2022-07-29T15:14:28;0.80;;;0.80;;
25657;SDS011;13517;59.320;18.042;2022-07-29T15:16:53;1.08;;;0.70;;